createdAt,value
2022-08-31T00:03:01.794Z,13.70
2022-08-31T00:06:10.986Z,13.61
2022-08-31T00:09:16.571Z,13.56
2022-08-31T00:12:23.676Z,13.51
2022-08-31T00:15:31.061Z,13.43
2022-08-31T00:18:36.808Z,13.29
2022-08-31T00:21:45.250Z,13.18
2022-08-31T00:24:53.587Z,13.08
2022-08-31T00:27:59.276Z,13.00
2022-08-31T00:31:07.446Z,12.98
2022-08-31T00:34:13.424Z,12.99
2022-08-31T00:37:22.613Z,13.01
2022-08-31T00:40:29.673Z,13.00
2022-08-31T00:43:46.404Z,12.89
2022-08-31T00:46:51.993Z,12.94
2022-08-31T00:49:57.775Z,12.97
2022-08-31T00:53:07.311Z,12.92
2022-08-31T00:56:13.065Z,13.01
2022-08-31T00:59:23.540Z,13.06
2022-08-31T01:02:29.614Z,12.97
2022-08-31T01:05:37.023Z,12.90
2022-08-31T01:08:45.221Z,12.82
2022-08-31T01:11:54.524Z,12.77
2022-08-31T01:15:02.773Z,12.70
2022-08-31T01:18:11.991Z,12.54
2022-08-31T01:21:42.313Z,12.48
2022-08-31T01:24:54.109Z,12.47
2022-08-31T01:28:06.825Z,12.46
2022-08-31T01:31:23.692Z,12.51
2022-08-31T01:34:30.071Z,12.47
2022-08-31T01:37:36.521Z,12.50
2022-08-31T01:40:56.633Z,12.50
2022-08-31T01:44:03.327Z,12.61
2022-08-31T01:47:09.205Z,12.65
2022-08-31T01:50:14.937Z,12.67
2022-08-31T01:53:20.887Z,12.57
2022-08-31T01:56:33.073Z,12.59
2022-08-31T01:59:40.906Z,12.60
2022-08-31T02:03:08.753Z,12.60
2022-08-31T02:06:17.204Z,12.59
2022-08-31T02:09:25.196Z,12.64
2022-08-31T02:12:39.357Z,12.63
2022-08-31T02:15:46.647Z,12.59
2022-08-31T02:18:54.556Z,12.53
2022-08-31T02:22:00.243Z,12.53
2022-08-31T02:25:26.253Z,12.50
2022-08-31T02:28:35.027Z,12.52
2022-08-31T02:31:41.087Z,12.53
2022-08-31T02:34:46.677Z,12.60
2022-08-31T02:37:52.650Z,12.53
2022-08-31T02:41:04.935Z,12.51
2022-08-31T02:44:14.042Z,12.48
2022-08-31T02:47:21.793Z,12.46
2022-08-31T02:50:52.145Z,12.48
2022-08-31T02:53:58.044Z,12.45
2022-08-31T02:57:03.739Z,12.45
2022-08-31T03:00:17.396Z,12.43
2022-08-31T03:03:24.349Z,12.41
2022-08-31T03:06:30.079Z,12.41
2022-08-31T03:09:35.816Z,12.41
2022-08-31T03:12:41.595Z,12.36
2022-08-31T03:15:52.832Z,12.38
2022-08-31T03:19:00.364Z,12.32
2022-08-31T03:22:06.077Z,12.35
2022-08-31T03:25:13.368Z,12.38
2022-08-31T03:28:19.503Z,12.30
2022-08-31T03:31:45.135Z,12.32
2022-08-31T03:34:51.243Z,12.42
2022-08-31T03:37:56.887Z,12.48
2022-08-31T03:41:05.016Z,12.54
2022-08-31T03:44:12.589Z,12.57
2022-08-31T03:47:21.233Z,12.55
2022-08-31T03:50:29.235Z,12.65
2022-08-31T03:53:46.469Z,12.61
2022-08-31T03:56:57.110Z,12.55
2022-08-31T04:00:08.983Z,12.58
2022-08-31T04:03:22.505Z,12.72
2022-08-31T04:06:54.500Z,12.87
2022-08-31T04:10:24.274Z,12.95
2022-08-31T04:13:57.013Z,12.88
2022-08-31T04:17:25.617Z,12.91
2022-08-31T04:20:44.249Z,12.86
2022-08-31T04:23:53.037Z,12.78
2022-08-31T04:26:58.944Z,12.74
2022-08-31T04:30:05.047Z,12.76
2022-08-31T04:33:11.497Z,12.79
2022-08-31T04:36:24.164Z,12.80
2022-08-31T04:39:34.493Z,12.82
2022-08-31T04:42:55.001Z,12.86
2022-08-31T04:46:08.482Z,12.97
2022-08-31T04:49:15.442Z,12.96
2022-08-31T04:52:28.268Z,13.01
2022-08-31T04:55:35.075Z,12.95
2022-08-31T04:58:42.548Z,13.13
2022-08-31T05:01:49.344Z,13.19
2022-08-31T05:05:16.243Z,13.33
2022-08-31T05:08:25.125Z,13.49
2022-08-31T05:11:33.032Z,13.55
2022-08-31T05:14:42.866Z,13.78
2022-08-31T05:17:58.216Z,14.03
2022-08-31T05:21:13.167Z,14.09
2022-08-31T05:24:24.822Z,14.28
2022-08-31T05:27:31.059Z,14.37
2022-08-31T05:30:36.752Z,14.60
2022-08-31T05:33:47.365Z,14.65
2022-08-31T05:36:59.620Z,14.44
2022-08-31T05:40:14.823Z,14.56
2022-08-31T05:43:20.627Z,14.57
2022-08-31T05:46:27.758Z,14.74
2022-08-31T05:49:43.050Z,14.90
2022-08-31T05:52:58.700Z,15.11
2022-08-31T05:56:19.124Z,15.33
2022-08-31T05:59:29.006Z,15.53
2022-08-31T06:02:35.944Z,16.26
2022-08-31T06:05:42.696Z,16.63
2022-08-31T06:08:51.151Z,16.79
2022-08-31T06:11:59.634Z,17.01
2022-08-31T06:15:05.816Z,17.20
2022-08-31T06:18:11.723Z,17.99
2022-08-31T06:21:17.451Z,18.32
2022-08-31T06:24:23.614Z,18.64
2022-08-31T06:27:31.837Z,18.41
2022-08-31T06:30:54.411Z,18.57
2022-08-31T06:34:03.280Z,18.95
2022-08-31T06:37:32.563Z,18.41
2022-08-31T06:41:39.064Z,18.88
2022-08-31T06:45:23.289Z,18.38
2022-08-31T06:48:46.780Z,18.56
2022-08-31T06:51:54.029Z,18.22
2022-08-31T06:55:00.036Z,18.64
2022-08-31T06:58:30.929Z,18.29
2022-08-31T07:02:09.362Z,18.97
2022-08-31T07:05:24.791Z,18.98
2022-08-31T07:08:32.008Z,18.93
2022-08-31T07:11:46.225Z,19.23
2022-08-31T07:14:54.698Z,19.16
2022-08-31T07:18:09.816Z,18.48
2022-08-31T07:21:20.746Z,18.53
2022-08-31T07:24:30.552Z,18.70
2022-08-31T07:27:37.353Z,18.26
2022-08-31T07:30:43.121Z,18.25
2022-08-31T07:34:00.211Z,17.81
2022-08-31T07:37:25.180Z,18.11
2022-08-31T07:40:44.707Z,18.73
2022-08-31T07:43:54.268Z,19.05
2022-08-31T07:47:00.197Z,18.73
2022-08-31T07:50:16.141Z,18.61
2022-08-31T07:53:58.796Z,18.49
2022-08-31T07:57:22.791Z,19.57
2022-08-31T08:00:33.326Z,20.12
2022-08-31T08:03:41.278Z,20.95
2022-08-31T08:07:11.560Z,20.96
2022-08-31T08:10:52.275Z,21.04
2022-08-31T08:14:25.166Z,20.89
2022-08-31T08:17:48.047Z,20.40
2022-08-31T08:20:58.642Z,20.76
2022-08-31T08:24:07.752Z,20.66
2022-08-31T08:27:36.599Z,20.60
2022-08-31T08:31:01.717Z,20.36
2022-08-31T08:34:10.393Z,20.95
2022-08-31T08:37:17.631Z,20.88
2022-08-31T08:40:48.282Z,20.47
2022-08-31T08:43:59.114Z,19.63
2022-08-31T08:47:20.710Z,19.37
2022-08-31T08:50:36.448Z,19.15
2022-08-31T08:53:46.565Z,18.99
2022-08-31T08:57:15.864Z,18.68
2022-08-31T09:00:30.678Z,19.25
2022-08-31T09:04:12.115Z,20.01
2022-08-31T09:08:23.622Z,20.45
2022-08-31T09:11:50.112Z,20.30
2022-08-31T09:15:31.997Z,20.80
2022-08-31T09:18:53.315Z,20.95
2022-08-31T09:22:03.230Z,21.11
2022-08-31T09:25:11.142Z,21.22
2022-08-31T09:28:19.508Z,21.86
2022-08-31T09:31:46.793Z,22.20
2022-08-31T09:35:02.180Z,21.75
2022-08-31T09:38:11.260Z,21.79
2022-08-31T09:41:35.704Z,22.26
2022-08-31T09:44:49.246Z,22.44
2022-08-31T09:48:01.547Z,21.40
2022-08-31T09:51:11.527Z,21.99
2022-08-31T09:54:37.126Z,21.93
2022-08-31T09:57:57.444Z,21.64
2022-08-31T10:01:19.931Z,21.68
2022-08-31T10:04:36.874Z,22.04
2022-08-31T10:07:59.151Z,21.54
2022-08-31T10:11:14.980Z,21.98
2022-08-31T10:14:34.447Z,21.67
2022-08-31T10:17:49.910Z,21.81
2022-08-31T10:21:14.244Z,22.29
2022-08-31T10:24:38.847Z,23.59
2022-08-31T10:27:58.330Z,24.13
2022-08-31T10:31:13.789Z,22.80
2022-08-31T10:34:42.348Z,22.38
2022-08-31T10:38:08.588Z,21.64
2022-08-31T10:41:27.323Z,21.29
2022-08-31T10:44:49.965Z,20.64
2022-08-31T10:48:05.355Z,20.63
2022-08-31T10:51:27.201Z,20.58
2022-08-31T10:54:57.489Z,20.27
2022-08-31T10:58:20.454Z,20.27
2022-08-31T11:01:45.828Z,20.56
2022-08-31T11:05:11.780Z,20.38
2022-08-31T11:08:49.283Z,19.80
2022-08-31T11:12:08.674Z,19.65
2022-08-31T11:15:49.033Z,19.75
2022-08-31T11:19:29.352Z,19.94
2022-08-31T11:23:20.394Z,19.81
2022-08-31T11:27:14.385Z,19.16
2022-08-31T11:30:29.225Z,19.45
2022-08-31T11:33:35.410Z,19.27
2022-08-31T11:36:55.006Z,19.15
2022-08-31T11:40:00.940Z,19.22
2022-08-31T11:43:24.241Z,19.07
2022-08-31T11:47:07.101Z,19.04
2022-08-31T11:50:56.177Z,19.25
2022-08-31T11:54:02.722Z,19.39
2022-08-31T11:57:15.746Z,19.34
2022-08-31T12:00:24.496Z,19.72
2022-08-31T12:03:50.848Z,19.80
2022-08-31T12:07:11.347Z,19.96
2022-08-31T12:10:39.950Z,20.19
2022-08-31T12:13:56.396Z,20.47
2022-08-31T12:17:23.194Z,20.38
2022-08-31T12:21:13.118Z,19.96
2022-08-31T12:24:45.689Z,19.86
2022-08-31T12:28:18.666Z,20.13
2022-08-31T12:31:34.638Z,19.90
2022-08-31T12:34:52.358Z,20.00
2022-08-31T12:38:04.748Z,20.15
2022-08-31T12:41:23.455Z,20.50
2022-08-31T12:44:37.042Z,20.21
2022-08-31T12:48:15.943Z,20.65
2022-08-31T12:51:46.145Z,20.87
2022-08-31T12:55:23.557Z,20.61
2022-08-31T12:59:07.011Z,20.64
2022-08-31T13:02:16.710Z,21.08
2022-08-31T13:05:26.814Z,21.17
2022-08-31T13:08:42.200Z,20.80
2022-08-31T13:11:57.406Z,20.58
2022-08-31T13:15:03.042Z,20.61
2022-08-31T13:18:16.201Z,19.87
2022-08-31T13:21:25.305Z,19.97
2022-08-31T13:24:37.986Z,20.40
2022-08-31T13:27:54.372Z,20.17
2022-08-31T13:31:09.387Z,20.20
2022-08-31T13:34:15.428Z,20.56
2022-08-31T13:37:31.659Z,20.48
2022-08-31T13:40:44.261Z,20.46
2022-08-31T13:43:59.141Z,20.45
2022-08-31T13:47:06.656Z,19.99
2022-08-31T13:50:22.650Z,20.26
2022-08-31T13:53:46.458Z,20.04
2022-08-31T13:56:59.101Z,19.68
2022-08-31T14:00:41.372Z,19.78
2022-08-31T14:03:57.427Z,19.88
2022-08-31T14:07:04.669Z,19.79
2022-08-31T14:10:22.482Z,20.01
2022-08-31T14:13:34.931Z,20.13
2022-08-31T14:16:51.965Z,19.75
2022-08-31T14:19:59.120Z,19.90
2022-08-31T14:23:35.073Z,20.04
2022-08-31T14:26:44.372Z,20.15
2022-08-31T14:29:58.586Z,20.15
2022-08-31T14:33:06.310Z,19.98
2022-08-31T14:36:16.259Z,19.75
2022-08-31T14:39:25.160Z,19.70
2022-08-31T14:42:37.371Z,19.55
2022-08-31T14:45:46.250Z,19.83
2022-08-31T14:48:52.013Z,20.07
2022-08-31T14:52:04.925Z,19.98
2022-08-31T14:55:13.054Z,19.99
2022-08-31T14:58:21.043Z,19.94
2022-08-31T15:01:35.849Z,19.91
2022-08-31T15:04:45.581Z,19.73
2022-08-31T15:07:53.171Z,19.76
2022-08-31T15:11:00.010Z,19.68
2022-08-31T15:14:20.441Z,19.37
2022-08-31T15:17:39.966Z,19.52
2022-08-31T15:20:56.106Z,19.51
2022-08-31T15:24:03.362Z,19.47
2022-08-31T15:27:12.980Z,19.52
2022-08-31T15:30:23.335Z,19.50
2022-08-31T15:33:33.506Z,19.39
2022-08-31T15:36:42.354Z,19.39
2022-08-31T15:39:49.484Z,19.19
2022-08-31T15:42:57.828Z,19.16
2022-08-31T15:46:13.291Z,19.21
2022-08-31T15:49:20.445Z,19.08
2022-08-31T15:52:33.661Z,19.05
2022-08-31T15:55:42.150Z,18.91
2022-08-31T15:58:54.050Z,18.93
2022-08-31T16:02:04.929Z,18.56
2022-08-31T16:05:29.003Z,18.38
2022-08-31T16:08:35.792Z,18.37
2022-08-31T16:11:43.632Z,18.17
2022-08-31T16:14:51.576Z,18.12
2022-08-31T16:17:58.310Z,18.11
2022-08-31T16:21:13.840Z,18.12
2022-08-31T16:24:28.038Z,18.15
2022-08-31T16:27:34.180Z,18.02
2022-08-31T16:30:48.099Z,18.00
2022-08-31T16:33:55.597Z,17.89
2022-08-31T16:37:07.976Z,18.02
2022-08-31T16:40:23.438Z,17.99
2022-08-31T16:43:29.411Z,17.70
2022-08-31T16:46:44.502Z,17.58
2022-08-31T16:49:51.954Z,17.68
2022-08-31T16:53:08.343Z,17.72
2022-08-31T16:56:19.587Z,17.74
2022-08-31T16:59:31.246Z,17.60
2022-08-31T17:02:36.986Z,17.54
2022-08-31T17:05:42.593Z,17.39
2022-08-31T17:08:52.347Z,17.40
2022-08-31T17:12:07.783Z,17.26
2022-08-31T17:15:14.254Z,17.06
2022-08-31T17:18:27.945Z,16.92
2022-08-31T17:21:37.181Z,16.90
2022-08-31T17:24:50.107Z,16.80
2022-08-31T17:28:07.627Z,16.87
2022-08-31T17:31:15.292Z,16.87
2022-08-31T17:34:26.311Z,16.83
2022-08-31T17:37:36.712Z,16.84
2022-08-31T17:40:45.530Z,16.81
2022-08-31T17:43:58.501Z,16.69
2022-08-31T17:47:09.814Z,16.64
2022-08-31T17:50:23.236Z,16.57
2022-08-31T17:53:29.126Z,16.47
2022-08-31T17:56:48.095Z,16.40
2022-08-31T17:59:56.133Z,16.37
2022-08-31T18:03:10.724Z,16.12
2022-08-31T18:06:20.722Z,16.14
2022-08-31T18:09:32.443Z,16.20
2022-08-31T18:12:42.348Z,15.98
2022-08-31T18:15:48.042Z,15.88
2022-08-31T18:18:54.287Z,15.83
2022-08-31T18:22:04.761Z,15.81
2022-08-31T18:25:12.202Z,15.81
2022-08-31T18:28:20.594Z,15.76
2022-08-31T18:31:36.662Z,15.65
2022-08-31T18:34:47.721Z,15.57
2022-08-31T18:37:53.517Z,15.54
2022-08-31T18:41:11.575Z,15.57
2022-08-31T18:44:32.255Z,15.60
2022-08-31T18:47:37.838Z,15.57
2022-08-31T18:50:45.157Z,15.56
2022-08-31T18:53:52.259Z,15.52
2022-08-31T18:57:09.496Z,15.48
2022-08-31T19:00:25.817Z,15.40
2022-08-31T19:03:32.230Z,15.32
2022-08-31T19:06:40.140Z,15.27
2022-08-31T19:09:46.182Z,15.17
2022-08-31T19:12:52.609Z,15.13
2022-08-31T19:16:05.602Z,15.01
2022-08-31T19:19:17.210Z,14.89
2022-08-31T19:22:22.976Z,14.77
2022-08-31T19:25:28.626Z,14.74
2022-08-31T19:28:34.312Z,14.66
2022-08-31T19:31:47.235Z,14.57
2022-08-31T19:34:53.057Z,14.51
2022-08-31T19:37:58.925Z,14.42
2022-08-31T19:41:05.508Z,14.32
2022-08-31T19:44:11.977Z,14.20
2022-08-31T19:47:27.353Z,14.13
2022-08-31T19:50:33.106Z,14.12
2022-08-31T19:53:42.627Z,14.06
2022-08-31T19:56:51.250Z,14.04
2022-08-31T19:59:57.494Z,14.02
2022-08-31T20:03:06.412Z,13.86
2022-08-31T20:06:16.565Z,13.81
2022-08-31T20:09:25.463Z,13.77
2022-08-31T20:12:39.685Z,13.75
2022-08-31T20:15:47.845Z,13.73
2022-08-31T20:18:57.850Z,13.69
2022-08-31T20:22:08.308Z,13.65
2022-08-31T20:25:17.871Z,13.61
2022-08-31T20:28:26.521Z,13.59
2022-08-31T20:31:32.603Z,13.51
2022-08-31T20:34:44.957Z,13.45
2022-08-31T20:37:52.720Z,13.43
2022-08-31T20:41:10.854Z,13.39
2022-08-31T20:44:21.055Z,13.33
2022-08-31T20:47:41.635Z,13.29
2022-08-31T20:50:50.135Z,13.20
2022-08-31T20:53:55.887Z,13.17
2022-08-31T20:57:04.831Z,13.06
2022-08-31T21:00:15.155Z,13.03
2022-08-31T21:03:20.997Z,13.03
2022-08-31T21:06:29.590Z,13.04
2022-08-31T21:09:42.765Z,12.91
2022-08-31T21:12:50.397Z,12.99
2022-08-31T21:15:59.189Z,12.97
2022-08-31T21:19:08.617Z,13.03
2022-08-31T21:22:20.898Z,13.04
2022-08-31T21:25:27.135Z,13.03
2022-08-31T21:28:36.578Z,13.01
2022-08-31T21:31:51.979Z,13.03
2022-08-31T21:35:08.530Z,13.05
2022-08-31T21:38:18.794Z,12.97
2022-08-31T21:41:28.148Z,13.00
2022-08-31T21:44:40.907Z,13.05
2022-08-31T21:47:46.496Z,13.03
2022-08-31T21:50:57.674Z,12.99
2022-08-31T21:54:22.883Z,13.00
2022-08-31T21:57:28.701Z,12.98
2022-08-31T22:00:35.210Z,12.93
2022-08-31T22:03:40.836Z,13.00
2022-08-31T22:06:49.958Z,12.95
2022-08-31T22:09:58.203Z,12.94
2022-08-31T22:13:08.695Z,12.97
2022-08-31T22:16:19.929Z,12.95
2022-08-31T22:19:34.016Z,12.92
2022-08-31T22:22:39.663Z,12.90
2022-08-31T22:25:48.159Z,12.90
2022-08-31T22:28:55.653Z,12.94
2022-08-31T22:32:08.748Z,12.98
2022-08-31T22:35:14.668Z,13.02
2022-08-31T22:38:20.462Z,13.03
2022-08-31T22:41:28.931Z,13.01
2022-08-31T22:44:37.830Z,13.03
2022-08-31T22:47:49.800Z,13.03
2022-08-31T22:50:55.981Z,13.00
2022-08-31T22:54:03.117Z,13.01
2022-08-31T22:57:11.604Z,13.04
2022-08-31T23:00:19.445Z,12.89
2022-08-31T23:03:27.363Z,12.83
2022-08-31T23:06:35.194Z,12.77
2022-08-31T23:09:42.682Z,12.72
2022-08-31T23:12:56.290Z,12.81
2022-08-31T23:16:01.989Z,12.80
2022-08-31T23:19:12.451Z,12.78
2022-08-31T23:22:18.718Z,12.84
2022-08-31T23:25:32.505Z,12.81
2022-08-31T23:28:42.597Z,12.83
2022-08-31T23:31:49.993Z,12.83
2022-08-31T23:34:57.510Z,12.82
2022-08-31T23:38:03.207Z,12.79
2022-08-31T23:41:13.657Z,12.74
2022-08-31T23:44:27.564Z,12.69
2022-08-31T23:47:35.223Z,12.75
2022-08-31T23:50:40.795Z,12.72
2022-08-31T23:53:48.784Z,12.74
2022-08-31T23:56:58.150Z,12.73
